createdAt,value
2023-05-12T00:01:49.473Z,100443.81
2023-05-12T00:04:16.192Z,100440.38
2023-05-12T00:06:42.816Z,100442.88
2023-05-12T00:09:09.747Z,100438.84
2023-05-12T00:11:38.049Z,100442.41
2023-05-12T00:14:04.775Z,100444.47
2023-05-12T00:16:31.615Z,100452.59
2023-05-12T00:18:58.409Z,100456.88
2023-05-12T00:21:25.039Z,100452.97
2023-05-12T00:23:51.653Z,100451.00
2023-05-12T00:26:18.237Z,100455.66
2023-05-12T00:28:45.331Z,100453.03
2023-05-12T00:31:12.034Z,100462.22
2023-05-12T00:33:38.674Z,100463.19
2023-05-12T00:36:05.804Z,100461.88
2023-05-12T00:38:34.280Z,100469.88
2023-05-12T00:41:01.459Z,100472.63
2023-05-12T00:43:28.056Z,100470.22
2023-05-12T00:45:54.786Z,100478.25
2023-05-12T00:48:21.662Z,100481.31
2023-05-12T00:50:48.392Z,100477.75
2023-05-12T00:53:15.080Z,100482.19
2023-05-12T00:55:42.312Z,100479.19
2023-05-12T00:58:09.018Z,100484.31
2023-05-12T01:00:35.789Z,100486.81
2023-05-12T01:03:02.783Z,100488.84
2023-05-12T01:05:39.464Z,100490.75
2023-05-12T01:08:06.426Z,100499.13
2023-05-12T01:10:33.265Z,100495.91
2023-05-12T01:12:59.867Z,100503.28
2023-05-12T01:15:26.661Z,100499.94
2023-05-12T01:17:57.770Z,100502.69
2023-05-12T01:20:27.579Z,100501.75
2023-05-12T01:22:55.490Z,100503.66
2023-05-12T01:25:23.797Z,100496.47
2023-05-12T01:27:50.785Z,100497.19
2023-05-12T01:30:19.153Z,100511.97
2023-05-12T01:32:46.200Z,100501.50
2023-05-12T01:35:12.956Z,100503.53
2023-05-12T01:37:39.579Z,100509.84
2023-05-12T01:40:06.920Z,100511.97
2023-05-12T01:42:33.728Z,100512.59
2023-05-12T01:45:00.475Z,100513.66
2023-05-12T01:47:27.257Z,100508.41
2023-05-12T01:49:54.420Z,100512.94
2023-05-12T01:52:21.162Z,100516.88
2023-05-12T01:54:47.969Z,100513.91
2023-05-12T01:57:14.618Z,100517.84
2023-05-12T01:59:41.212Z,100524.63
2023-05-12T02:02:07.929Z,100524.63
2023-05-12T02:04:34.767Z,100535.38
2023-05-12T02:07:02.051Z,100532.72
2023-05-12T02:09:28.695Z,100535.34
2023-05-12T02:11:55.325Z,100539.53
2023-05-12T02:14:21.962Z,100541.22
2023-05-12T02:16:52.630Z,100539.06
2023-05-12T02:19:20.851Z,100549.69
2023-05-12T02:21:48.431Z,100558.38
2023-05-12T02:24:16.580Z,100555.19
2023-05-12T02:26:43.326Z,100562.19
2023-05-12T02:29:10.971Z,100565.84
2023-05-12T02:31:37.860Z,100570.63
2023-05-12T02:34:06.659Z,100580.97
2023-05-12T02:36:33.696Z,100569.84
2023-05-12T02:39:00.398Z,100579.16
2023-05-12T02:41:27.003Z,100584.75
2023-05-12T02:43:53.793Z,100572.00
2023-05-12T02:46:20.589Z,100575.19
2023-05-12T02:48:47.321Z,100582.81
2023-05-12T02:51:14.008Z,100586.81
2023-05-12T02:53:40.777Z,100588.25
2023-05-12T02:56:08.050Z,100589.91
2023-05-12T02:58:35.032Z,100593.34
2023-05-12T03:01:09.922Z,100595.94
2023-05-12T03:03:38.008Z,100590.47
2023-05-12T03:06:06.225Z,100592.63
2023-05-12T03:08:33.180Z,100590.22
2023-05-12T03:10:59.919Z,100593.84
2023-05-12T03:13:26.506Z,100607.38
2023-05-12T03:15:53.365Z,100592.47
2023-05-12T03:18:20.175Z,100588.03
2023-05-12T03:20:47.108Z,100591.00
2023-05-12T03:23:13.801Z,100590.63
2023-05-12T03:25:40.421Z,100600.38
2023-05-12T03:28:07.108Z,100596.34
2023-05-12T03:30:33.753Z,100598.66
2023-05-12T03:33:00.495Z,100601.22
2023-05-12T03:35:27.308Z,100604.19
2023-05-12T03:37:54.047Z,100606.94
2023-05-12T03:40:20.986Z,100597.97
2023-05-12T03:42:48.101Z,100600.47
2023-05-12T03:45:14.820Z,100603.22
2023-05-12T03:47:43.160Z,100602.59
2023-05-12T03:50:10.370Z,100604.50
2023-05-12T03:52:38.668Z,100598.94
2023-05-12T03:55:07.134Z,100608.59
2023-05-12T03:57:34.509Z,100602.69
2023-05-12T04:00:01.427Z,100603.06
2023-05-12T04:02:28.300Z,100610.28
2023-05-12T04:04:54.978Z,100603.75
2023-05-12T04:07:21.716Z,100610.66
2023-05-12T04:09:48.312Z,100616.81
2023-05-12T04:12:14.896Z,100615.94
2023-05-12T04:14:43.210Z,100614.47
2023-05-12T04:17:11.029Z,100614.09
2023-05-12T04:19:37.699Z,100611.56
2023-05-12T04:22:04.573Z,100620.19
2023-05-12T04:24:31.329Z,100623.53
2023-05-12T04:26:58.126Z,100623.53
2023-05-12T04:29:24.809Z,100623.06
2023-05-12T04:31:51.503Z,100623.47
2023-05-12T04:34:18.162Z,100633.13
2023-05-12T04:36:44.772Z,100631.91
2023-05-12T04:39:11.450Z,100636.00
2023-05-12T04:41:38.183Z,100639.66
2023-05-12T04:44:05.046Z,100643.63
2023-05-12T04:46:31.802Z,100645.38
2023-05-12T04:48:58.448Z,100648.28
2023-05-12T04:51:25.074Z,100655.94
2023-05-12T04:53:51.703Z,100661.19
2023-05-12T04:56:18.324Z,100669.16
2023-05-12T04:58:45.075Z,100676.19
2023-05-12T05:01:12.575Z,100675.72
2023-05-12T05:03:40.166Z,100680.47
2023-05-12T05:06:07.151Z,100678.25
2023-05-12T05:08:33.802Z,100679.09
2023-05-12T05:11:00.476Z,100684.97
2023-05-12T05:13:27.100Z,100681.97
2023-05-12T05:15:55.729Z,100694.00
2023-05-12T05:18:24.208Z,100684.09
2023-05-12T05:20:57.767Z,100696.06
2023-05-12T05:23:24.858Z,100695.84
2023-05-12T05:25:51.615Z,100702.47
2023-05-12T05:28:18.211Z,100708.28
2023-05-12T05:30:44.935Z,100700.75
2023-05-12T05:33:13.244Z,100703.31
2023-05-12T05:35:40.307Z,100707.44
2023-05-12T05:38:06.961Z,100715.88
2023-05-12T05:40:44.955Z,100714.13
2023-05-12T05:43:18.890Z,100727.94
2023-05-12T05:45:45.814Z,100728.53
2023-05-12T05:48:12.504Z,100739.50
2023-05-12T05:50:39.278Z,100732.78
2023-05-12T05:53:06.723Z,100735.47
2023-05-12T05:55:33.411Z,100744.63
2023-05-12T05:58:00.182Z,100735.47
2023-05-12T06:00:26.898Z,100734.34
2023-05-12T06:02:53.672Z,100743.84
2023-05-12T06:05:20.746Z,100753.69
2023-05-12T06:07:47.633Z,100750.88
2023-05-12T06:10:14.281Z,100747.75
2023-05-12T06:12:41.488Z,100752.97
2023-05-12T06:15:08.668Z,100755.25
2023-05-12T06:17:35.510Z,100752.56
2023-05-12T06:20:03.026Z,100757.22
2023-05-12T06:22:29.653Z,100765.09
2023-05-12T06:24:56.472Z,100762.19
2023-05-12T06:27:23.477Z,100762.78
2023-05-12T06:29:51.968Z,100769.94
2023-05-12T06:32:19.219Z,100771.31
2023-05-12T06:34:45.938Z,100777.97
2023-05-12T06:37:12.575Z,100778.69
2023-05-12T06:39:39.210Z,100774.69
2023-05-12T06:42:06.199Z,100775.72
2023-05-12T06:44:32.879Z,100785.97
2023-05-12T06:46:59.534Z,100779.00
2023-05-12T06:49:26.222Z,100787.19
2023-05-12T06:51:56.506Z,100786.56
2023-05-12T06:54:23.676Z,100791.34
2023-05-12T06:56:50.551Z,100798.91
2023-05-12T06:59:25.611Z,100801.97
2023-05-12T07:01:52.787Z,100797.53
2023-05-12T07:04:19.560Z,100795.63
2023-05-12T07:06:46.175Z,100794.56
2023-05-12T07:09:14.166Z,100794.56
2023-05-12T07:11:40.902Z,100791.31
2023-05-12T07:14:07.532Z,100792.03
2023-05-12T07:16:34.305Z,100789.91
2023-05-12T07:19:01.128Z,100800.13
2023-05-12T07:21:29.668Z,100807.91
2023-05-12T07:23:56.636Z,100808.88
2023-05-12T07:26:24.425Z,100816.72
2023-05-12T07:28:51.157Z,100809.19
2023-05-12T07:31:17.773Z,100805.69
2023-05-12T07:33:44.478Z,100818.13
2023-05-12T07:36:11.111Z,100817.75
2023-05-12T07:38:37.751Z,100819.31
2023-05-12T07:41:04.707Z,100828.34
2023-05-12T07:43:31.342Z,100833.28
2023-05-12T07:45:59.323Z,100822.78
2023-05-12T07:48:26.026Z,100827.66
2023-05-12T07:50:52.659Z,100827.03
2023-05-12T07:53:19.418Z,100837.03
2023-05-12T07:55:46.050Z,100835.41
2023-05-12T07:58:12.977Z,100840.69
2023-05-12T08:00:40.546Z,100840.00
2023-05-12T08:03:07.912Z,100841.06
2023-05-12T08:05:34.804Z,100840.19
2023-05-12T08:08:01.585Z,100833.81
2023-05-12T08:10:29.967Z,100842.50
2023-05-12T08:12:56.792Z,100843.50
2023-05-12T08:15:26.006Z,100835.34
2023-05-12T08:17:52.727Z,100848.09
2023-05-12T08:20:19.504Z,100847.88
2023-05-12T08:22:47.937Z,100844.47
2023-05-12T08:25:14.805Z,100844.00
2023-05-12T08:27:41.605Z,100846.44
2023-05-12T08:30:09.722Z,100844.56
2023-05-12T08:32:36.791Z,100847.19
2023-05-12T08:35:03.925Z,100846.56
2023-05-12T08:37:33.644Z,100842.34
2023-05-12T08:40:01.040Z,100842.47
2023-05-12T08:42:55.999Z,100845.09
2023-05-12T08:45:23.902Z,100848.22
2023-05-12T08:47:51.696Z,100841.91
2023-05-12T08:50:22.212Z,100854.47
2023-05-12T08:52:49.873Z,100859.97
2023-05-12T08:55:18.455Z,100855.91
2023-05-12T08:57:48.405Z,100858.13
2023-05-12T09:00:16.504Z,100852.22
2023-05-12T09:02:53.241Z,100860.94
2023-05-12T09:05:21.344Z,100869.03
2023-05-12T09:07:49.978Z,100866.28
2023-05-12T09:10:32.906Z,100870.97
2023-05-12T09:13:17.485Z,100859.72
2023-05-12T09:15:47.060Z,100872.16
2023-05-12T09:18:13.750Z,100856.13
2023-05-12T09:20:40.463Z,100866.19
2023-05-12T09:23:21.132Z,100876.34
2023-05-12T09:26:00.890Z,100868.69
2023-05-12T09:28:39.789Z,100869.50
2023-05-12T09:31:19.034Z,100875.25
2023-05-12T09:33:45.708Z,100861.34
2023-05-12T09:36:20.823Z,100862.94
2023-05-12T09:38:58.300Z,100884.38
2023-05-12T09:41:25.561Z,100874.41
2023-05-12T09:43:55.388Z,100864.75
2023-05-12T09:46:22.283Z,100879.16
2023-05-12T09:48:49.165Z,100877.28
2023-05-12T09:51:18.788Z,100880.97
2023-05-12T09:53:46.903Z,100882.47
2023-05-12T09:56:14.724Z,100870.44
2023-05-12T09:58:46.517Z,100877.19
2023-05-12T10:01:22.922Z,100881.97
2023-05-12T10:03:56.417Z,100876.50
2023-05-12T10:06:37.422Z,100873.47
2023-05-12T10:09:31.541Z,100875.63
2023-05-12T10:11:59.187Z,100888.56
2023-05-12T10:14:26.044Z,100880.84
2023-05-12T10:16:54.027Z,100882.50
2023-05-12T10:19:21.564Z,100872.16
2023-05-12T10:21:49.655Z,100881.19
2023-05-12T10:24:17.301Z,100880.94
2023-05-12T10:26:44.774Z,100879.91
2023-05-12T10:29:12.905Z,100883.09
2023-05-12T10:31:40.488Z,100886.16
2023-05-12T10:34:07.494Z,100888.88
2023-05-12T10:36:48.162Z,100898.16
2023-05-12T10:39:17.789Z,100904.56
2023-05-12T10:41:44.468Z,100895.41
2023-05-12T10:44:12.298Z,100888.84
2023-05-12T10:46:39.069Z,100893.16
2023-05-12T10:49:10.551Z,100883.09
2023-05-12T10:51:43.211Z,100874.63
2023-05-12T10:54:12.988Z,100893.53
2023-05-12T10:56:40.054Z,100880.38
2023-05-12T10:59:22.829Z,100886.16
2023-05-12T11:01:58.962Z,100879.47
2023-05-12T11:04:48.270Z,100875.97
2023-05-12T11:07:17.826Z,100883.88
2023-05-12T11:09:57.640Z,100868.84
2023-05-12T11:12:28.676Z,100865.47
2023-05-12T11:14:55.418Z,100877.34
2023-05-12T11:17:22.330Z,100894.06
2023-05-12T11:19:50.619Z,100876.59
2023-05-12T11:22:20.139Z,100874.50
2023-05-12T11:24:47.924Z,100873.00
2023-05-12T11:27:16.418Z,100881.22
2023-05-12T11:29:45.083Z,100873.19
2023-05-12T11:32:14.834Z,100873.19
2023-05-12T11:34:41.948Z,100875.25
2023-05-12T11:37:09.197Z,100874.78
2023-05-12T11:40:23.622Z,100877.34
2023-05-12T11:46:26.586Z,100894.09
2023-05-12T11:49:00.308Z,100894.25
2023-05-12T11:51:27.952Z,100901.03
2023-05-12T11:53:56.280Z,100893.84
2023-05-12T11:56:24.531Z,100895.25
2023-05-12T11:58:56.520Z,100896.69
2023-05-12T12:01:25.027Z,100897.41
2023-05-12T12:03:55.755Z,100895.81
2023-05-12T12:06:23.116Z,100897.75
2023-05-12T12:09:00.304Z,100888.81
2023-05-12T12:11:28.389Z,100894.59
2023-05-12T12:14:00.164Z,100895.25
2023-05-12T12:16:28.538Z,100910.47
2023-05-12T12:18:56.083Z,100894.88
2023-05-12T12:21:24.733Z,100896.94
2023-05-12T12:23:52.670Z,100899.94
2023-05-12T12:26:23.319Z,100901.75
2023-05-12T12:28:50.105Z,100897.75
2023-05-12T12:31:18.912Z,100909.34
2023-05-12T12:33:45.636Z,100908.09
2023-05-12T12:36:14.636Z,100896.09
2023-05-12T12:38:41.891Z,100898.69
2023-05-12T12:41:08.690Z,100900.97
2023-05-12T12:43:36.881Z,100898.13
2023-05-12T12:46:03.934Z,100902.09
2023-05-12T12:48:32.170Z,100904.91
2023-05-12T12:50:59.047Z,100897.81
2023-05-12T12:53:25.672Z,100905.94
2023-05-12T12:55:52.563Z,100906.13
2023-05-12T12:58:21.285Z,100904.28
2023-05-12T13:00:48.435Z,100906.63
2023-05-12T13:03:17.058Z,100908.28
2023-05-12T13:05:44.878Z,100906.28
2023-05-12T13:08:13.498Z,100901.84
2023-05-12T13:10:42.126Z,100909.97
2023-05-12T13:13:11.923Z,100906.31
2023-05-12T13:15:42.330Z,100902.28
2023-05-12T13:18:08.971Z,100908.34
2023-05-12T13:20:36.417Z,100905.41
2023-05-12T13:23:03.743Z,100914.53
2023-05-12T13:25:32.419Z,100910.03
2023-05-12T13:27:59.307Z,100910.16
2023-05-12T13:30:26.723Z,100917.91
2023-05-12T13:32:53.832Z,100913.66
2023-05-12T13:35:23.549Z,100917.84
2023-05-12T13:37:50.666Z,100916.66
2023-05-12T13:40:17.351Z,100918.69
2023-05-12T13:42:44.465Z,100912.81
2023-05-12T13:45:11.647Z,100921.03
2023-05-12T13:47:38.485Z,100923.03
2023-05-12T13:50:08.178Z,100920.31
2023-05-12T13:52:36.144Z,100919.00
2023-05-12T13:55:03.242Z,100920.19
2023-05-12T13:57:29.981Z,100933.53
2023-05-12T13:59:58.747Z,100913.44
2023-05-12T14:02:25.520Z,100924.63
2023-05-12T14:04:52.443Z,100930.75
2023-05-12T14:07:19.436Z,100927.28
2023-05-12T14:09:46.208Z,100924.56
2023-05-12T14:12:12.953Z,100923.97
2023-05-12T14:14:39.733Z,100931.22
2023-05-12T14:17:07.904Z,100922.44
2023-05-12T14:19:36.004Z,100927.00
2023-05-12T14:22:05.848Z,100933.97
2023-05-12T14:24:36.637Z,100933.25
2023-05-12T14:27:03.704Z,100924.25
2023-05-12T14:29:35.942Z,100932.44
2023-05-12T14:32:04.688Z,100920.19
2023-05-12T14:34:31.791Z,100920.66
2023-05-12T14:36:58.880Z,100927.50
2023-05-12T14:39:25.559Z,100934.09
2023-05-12T14:41:52.230Z,100926.41
2023-05-12T14:44:19.523Z,100918.41
2023-05-12T14:46:48.903Z,100932.66
2023-05-12T14:49:18.629Z,100946.72
2023-05-12T14:51:45.436Z,100949.94
2023-05-12T14:54:24.834Z,100931.78
2023-05-12T14:56:57.106Z,100940.84
2023-05-12T14:59:24.938Z,100930.66
2023-05-12T15:01:52.058Z,100924.19
2023-05-12T15:04:18.690Z,100932.34
2023-05-12T15:06:45.501Z,100932.59
2023-05-12T15:09:12.314Z,100933.81
2023-05-12T15:11:39.723Z,100938.13
2023-05-12T15:14:06.322Z,100941.22
2023-05-12T15:16:33.294Z,100945.16
2023-05-12T15:19:00.055Z,100941.22
2023-05-12T15:21:26.781Z,100936.19
2023-05-12T15:23:53.396Z,100937.75
2023-05-12T15:26:33.040Z,100938.84
2023-05-12T15:29:00.716Z,100940.28
2023-05-12T15:31:31.061Z,100941.22
2023-05-12T15:33:57.972Z,100948.28
2023-05-12T15:36:24.612Z,100944.81
2023-05-12T15:38:51.250Z,100936.69
2023-05-12T15:41:17.904Z,100934.38
2023-05-12T15:43:44.541Z,100928.16
2023-05-12T15:46:11.741Z,100930.56
2023-05-12T15:48:39.397Z,100926.63
2023-05-12T15:51:06.928Z,100936.53
2023-05-12T15:53:33.858Z,100932.59
2023-05-12T15:56:04.869Z,100944.22
2023-05-12T15:58:31.996Z,100929.75
2023-05-12T16:00:59.479Z,100936.19
2023-05-12T16:03:26.425Z,100940.16
2023-05-12T16:05:53.325Z,100933.22
2023-05-12T16:08:20.448Z,100933.06
2023-05-12T16:10:47.237Z,100933.81
2023-05-12T16:13:14.535Z,100931.41
2023-05-12T16:15:41.337Z,100925.69
2023-05-12T16:18:10.890Z,100931.19
2023-05-12T16:20:38.908Z,100932.47
2023-05-12T16:23:05.647Z,100941.09
2023-05-12T16:25:32.290Z,100924.69
2023-05-12T16:27:59.031Z,100935.50
2023-05-12T16:30:26.431Z,100933.44
2023-05-12T16:32:53.341Z,100934.03
2023-05-12T16:35:20.937Z,100932.50
2023-05-12T16:37:48.050Z,100926.41
2023-05-12T16:40:15.343Z,100927.94
2023-05-12T16:42:42.743Z,100942.78
2023-05-12T16:45:11.396Z,100942.66
2023-05-12T16:47:38.951Z,100936.53
2023-05-12T16:50:06.322Z,100945.06
2023-05-12T16:52:34.391Z,100948.53
2023-05-12T16:55:03.010Z,100958.34
2023-05-12T16:57:32.308Z,100940.63
2023-05-12T17:00:02.244Z,100953.09
2023-05-12T17:02:30.959Z,100939.31
2023-05-12T17:04:57.751Z,100954.06
2023-05-12T17:07:24.756Z,100944.69
2023-05-12T17:09:51.878Z,100941.25
2023-05-12T17:12:19.749Z,100952.84
2023-05-12T17:14:53.159Z,100944.59
2023-05-12T17:17:30.855Z,100955.22
2023-05-12T17:19:58.991Z,100952.84
2023-05-12T17:22:27.127Z,100960.38
2023-05-12T17:24:53.834Z,100953.56
2023-05-12T17:27:20.536Z,100951.75
2023-05-12T17:29:49.729Z,100960.28
2023-05-12T17:32:17.081Z,100957.03
2023-05-12T17:34:45.049Z,100969.13
2023-05-12T17:37:11.939Z,100966.84
2023-05-12T17:39:40.623Z,100971.75
2023-05-12T17:42:07.512Z,100965.63
2023-05-12T17:44:34.179Z,100961.44
2023-05-12T17:47:04.601Z,100969.28
2023-05-12T17:49:31.844Z,100965.91
2023-05-12T17:51:58.566Z,100973.72
2023-05-12T17:54:25.401Z,100975.03
2023-05-12T17:56:53.069Z,100980.16
2023-05-12T17:59:19.815Z,100978.00
2023-05-12T18:01:46.481Z,100982.22
2023-05-12T18:04:13.830Z,101005.63
2023-05-12T18:06:41.656Z,100996.03
2023-05-12T18:09:08.941Z,100989.97
2023-05-12T18:11:35.755Z,101005.25
2023-05-12T18:14:06.316Z,101001.41
2023-05-12T18:16:33.625Z,100992.91
2023-05-12T18:19:03.534Z,100995.19
2023-05-12T18:21:30.204Z,100986.69
2023-05-12T18:23:56.804Z,101004.94
2023-05-12T18:26:23.720Z,101004.88
2023-05-12T18:28:50.427Z,100997.56
2023-05-12T18:31:19.534Z,100999.53
2023-05-12T18:33:47.996Z,100990.97
2023-05-12T18:36:16.845Z,100993.50
2023-05-12T18:38:43.834Z,100991.41
2023-05-12T18:41:12.573Z,100999.13
2023-05-12T18:43:40.471Z,101009.31
2023-05-12T18:46:07.349Z,101002.50
2023-05-12T18:48:34.051Z,101011.22
2023-05-12T18:51:01.223Z,101019.09
2023-05-12T18:53:28.093Z,101019.34
2023-05-12T18:55:55.114Z,101004.91
2023-05-12T18:58:21.763Z,101017.81
2023-05-12T19:00:48.761Z,101022.09
2023-05-12T19:03:16.501Z,101016.31
2023-05-12T19:05:46.353Z,101027.91
2023-05-12T19:08:13.111Z,101018.22
2023-05-12T19:10:40.196Z,101018.97
2023-05-12T19:13:07.498Z,101020.66
2023-05-12T19:15:34.367Z,101034.47
2023-05-12T19:18:01.149Z,101032.56
2023-05-12T19:20:29.132Z,101038.13
2023-05-12T19:22:55.974Z,101042.41
2023-05-12T19:25:23.069Z,101045.44
2023-05-12T19:27:51.415Z,101054.78
2023-05-12T19:30:20.494Z,101059.03
2023-05-12T19:32:47.447Z,101051.72
2023-05-12T19:35:15.288Z,101053.97
2023-05-12T19:37:42.172Z,101069.72
2023-05-12T19:40:11.707Z,101060.25
2023-05-12T19:42:38.889Z,101058.72
2023-05-12T19:45:06.187Z,101079.31
2023-05-12T19:47:33.690Z,101088.22
2023-05-12T19:50:00.679Z,101077.41
2023-05-12T19:52:30.670Z,101083.41
2023-05-12T19:54:57.990Z,101076.69
2023-05-12T19:57:25.551Z,101088.94
2023-05-12T19:59:52.312Z,101088.16
2023-05-12T20:02:19.004Z,101090.25
2023-05-12T20:04:46.549Z,101093.19
2023-05-12T20:07:13.309Z,101090.69
2023-05-12T20:09:40.189Z,101099.34
2023-05-12T20:12:08.078Z,101093.44
2023-05-12T20:14:38.438Z,101108.50
2023-05-12T20:17:07.222Z,101106.84
2023-05-12T20:19:33.960Z,101110.91
2023-05-12T20:22:01.113Z,101108.81
2023-05-12T20:24:27.932Z,101111.94
2023-05-12T20:26:54.894Z,101119.63
2023-05-12T20:29:22.327Z,101120.47
2023-05-12T20:31:50.901Z,101116.47
2023-05-12T20:34:18.947Z,101119.25
2023-05-12T20:36:46.529Z,101120.47
2023-05-12T20:39:14.229Z,101121.13
2023-05-12T20:41:44.121Z,101128.47
2023-05-12T20:44:10.991Z,101128.69
2023-05-12T20:46:44.504Z,101118.31
2023-05-12T20:49:14.036Z,101126.38
2023-05-12T20:51:40.624Z,101118.16
2023-05-12T20:54:07.263Z,101124.31
2023-05-12T20:56:37.064Z,101131.28
2023-05-12T20:59:04.355Z,101129.41
2023-05-12T21:01:35.077Z,101140.19
2023-05-12T21:04:01.927Z,101138.28
2023-05-12T21:06:28.753Z,101132.16
2023-05-12T21:08:55.510Z,101135.75
2023-05-12T21:11:22.394Z,101141.88
2023-05-12T21:13:50.120Z,101134.94
2023-05-12T21:16:16.996Z,101137.28
2023-05-12T21:18:43.839Z,101136.44
2023-05-12T21:21:14.912Z,101135.63
2023-05-12T21:23:42.009Z,101137.34
2023-05-12T21:26:10.450Z,101138.22
2023-05-12T21:28:37.569Z,101140.97
2023-05-12T21:31:04.657Z,101135.28
2023-05-12T21:33:43.402Z,101141.84
2023-05-12T21:36:13.663Z,101143.75
2023-05-12T21:38:40.683Z,101145.00
2023-05-12T21:41:07.345Z,101150.06
2023-05-12T21:43:34.092Z,101142.25
2023-05-12T21:46:05.501Z,101135.34
2023-05-12T21:48:33.333Z,101148.38
2023-05-12T21:51:01.603Z,101141.84
2023-05-12T21:53:29.232Z,101153.88
2023-05-12T21:55:56.053Z,101144.84
2023-05-12T21:58:23.931Z,101153.69
2023-05-12T22:00:51.370Z,101141.47
2023-05-12T22:03:20.409Z,101144.19
2023-05-12T22:05:48.313Z,101140.41
2023-05-12T22:08:16.414Z,101143.59
2023-05-12T22:10:43.510Z,101134.31
2023-05-12T22:13:10.756Z,101138.31
2023-05-12T22:15:37.727Z,101132.22
2023-05-12T22:18:04.785Z,101136.66
2023-05-12T22:20:32.034Z,101139.81
2023-05-12T22:23:02.157Z,101126.72
2023-05-12T22:25:29.042Z,101145.94
2023-05-12T22:27:55.927Z,101146.34
2023-05-12T22:30:22.991Z,101155.84
2023-05-12T22:32:50.069Z,101153.53
2023-05-12T22:35:17.090Z,101155.84
2023-05-12T22:37:43.970Z,101151.38
2023-05-12T22:40:10.897Z,101156.44
2023-05-12T22:42:37.666Z,101162.38
2023-05-12T22:45:05.162Z,101157.97
2023-05-12T22:47:32.420Z,101167.44
2023-05-12T22:49:59.494Z,101158.38
2023-05-12T22:52:26.315Z,101153.31
2023-05-12T22:54:53.935Z,101157.94
2023-05-12T22:57:24.292Z,101151.22
2023-05-12T22:59:51.134Z,101157.13
2023-05-12T23:02:17.851Z,101164.72
2023-05-12T23:04:44.522Z,101157.13
2023-05-12T23:07:11.505Z,101160.94
2023-05-12T23:09:38.152Z,101169.34
2023-05-12T23:12:05.607Z,101158.84
2023-05-12T23:14:32.311Z,101164.94
2023-05-12T23:16:59.011Z,101171.25
2023-05-12T23:19:25.751Z,101173.56
2023-05-12T23:21:52.404Z,101171.03
2023-05-12T23:24:19.065Z,101178.63
2023-05-12T23:26:45.841Z,101164.53
2023-05-12T23:29:12.609Z,101161.38
2023-05-12T23:31:39.377Z,101163.44
2023-05-12T23:34:06.086Z,101166.84
2023-05-12T23:36:32.759Z,101168.94
2023-05-12T23:38:59.540Z,101166.84
2023-05-12T23:41:26.217Z,101163.47
2023-05-12T23:43:52.881Z,101164.72
2023-05-12T23:46:19.589Z,101168.94
2023-05-12T23:48:46.239Z,101157.34
2023-05-12T23:51:12.982Z,101158.00
2023-05-12T23:53:39.617Z,101159.47
2023-05-12T23:56:06.731Z,101152.31
2023-05-12T23:58:34.163Z,101154.59
